sensor_id;sensor_type;location;lat;lon;timestamp;pressure;altitude;pressure_sealevel;temperature;humidity
35806;BME280;21925;44.608;11.580;2023-04-10T00:00:45;102348.66;;;13.21;73.19
35806;BME280;21925;44.608;11.580;2023-04-10T00:03:12;102336.94;;;13.50;71.26
35806;BME280;21925;44.608;11.580;2023-04-10T00:05:37;102349.59;;;13.51;72.13
35806;BME280;21925;44.608;11.580;2023-04-10T00:08:03;102342.63;;;13.53;71.69
35806;BME280;21925;44.608;11.580;2023-04-10T00:10:29;102350.22;;;13.64;70.97
35806;BME280;21925;44.608;11.580;2023-04-10T00:12:56;102322.22;;;13.46;71.92
35806;BME280;21925;44.608;11.580;2023-04-10T00:15:22;102330.44;;;13.62;71.07
35806;BME280;21925;44.608;11.580;2023-04-10T00:17:47;102344.72;;;13.56;70.89
35806;BME280;21925;44.608;11.580;2023-04-10T00:20:15;102325.78;;;13.46;71.01
35806;BME280;21925;44.608;11.580;2023-04-10T00:22:40;102343.03;;;12.92;75.72
35806;BME280;21925;44.608;11.580;2023-04-10T00:25:07;102339.47;;;13.00;76.44
35806;BME280;21925;44.608;11.580;2023-04-10T00:27:32;102317.56;;;13.29;73.42
35806;BME280;21925;44.608;11.580;2023-04-10T00:29:58;102273.88;;;12.94;73.94
35806;BME280;21925;44.608;11.580;2023-04-10T00:32:23;102334.13;;;13.12;74.90
35806;BME280;21925;44.608;11.580;2023-04-10T00:34:49;102319.19;;;12.71;76.95
35806;BME280;21925;44.608;11.580;2023-04-10T00:37:15;102302.84;;;12.74;78.68
35806;BME280;21925;44.608;11.580;2023-04-10T00:39:41;102333.13;;;13.17;76.17
35806;BME280;21925;44.608;11.580;2023-04-10T00:42:07;102330.88;;;13.27;75.77
35806;BME280;21925;44.608;11.580;2023-04-10T00:44:34;102311.91;;;12.83;76.00
35806;BME280;21925;44.608;11.580;2023-04-10T00:47:03;102310.00;;;12.92;75.57
35806;BME280;21925;44.608;11.580;2023-04-10T00:49:29;102323.25;;;13.07;74.44
35806;BME280;21925;44.608;11.580;2023-04-10T00:51:55;102330.53;;;13.29;74.23
35806;BME280;21925;44.608;11.580;2023-04-10T00:54:22;102321.97;;;12.79;75.36
35806;BME280;21925;44.608;11.580;2023-04-10T00:56:48;102332.66;;;13.15;74.95
35806;BME280;21925;44.608;11.580;2023-04-10T00:59:14;102325.88;;;13.12;73.37
35806;BME280;21925;44.608;11.580;2023-04-10T01:01:40;102323.91;;;13.13;73.83
35806;BME280;21925;44.608;11.580;2023-04-10T01:04:07;102329.50;;;13.42;72.86
35806;BME280;21925;44.608;11.580;2023-04-10T01:06:49;102331.16;;;13.26;72.48
35806;BME280;21925;44.608;11.580;2023-04-10T01:09:40;102341.38;;;13.34;73.41
35806;BME280;21925;44.608;11.580;2023-04-10T01:15:19;102335.56;;;13.10;74.74
35806;BME280;21925;44.608;11.580;2023-04-10T01:17:55;102332.66;;;13.15;75.03
35806;BME280;21925;44.608;11.580;2023-04-10T01:20:23;102329.59;;;13.08;74.71
35806;BME280;21925;44.608;11.580;2023-04-10T01:23:11;102322.06;;;12.32;79.51
35806;BME280;21925;44.608;11.580;2023-04-10T01:25:55;102338.22;;;12.25;80.41
35806;BME280;21925;44.608;11.580;2023-04-10T01:29:00;102323.56;;;11.91;81.54
35806;BME280;21925;44.608;11.580;2023-04-10T01:34:19;102333.59;;;11.95;83.27
35806;BME280;21925;44.608;11.580;2023-04-10T01:36:50;102331.22;;;12.11;83.07
35806;BME280;21925;44.608;11.580;2023-04-10T01:39:19;102317.06;;;12.34;80.38
35806;BME280;21925;44.608;11.580;2023-04-10T01:41:47;102328.81;;;12.18;79.58
35806;BME280;21925;44.608;11.580;2023-04-10T01:44:17;102329.22;;;12.50;77.63
35806;BME280;21925;44.608;11.580;2023-04-10T01:46:45;102326.78;;;12.49;77.67
35806;BME280;21925;44.608;11.580;2023-04-10T01:49:11;102329.69;;;12.52;76.91
35806;BME280;21925;44.608;11.580;2023-04-10T01:51:37;102323.38;;;12.52;77.58
35806;BME280;21925;44.608;11.580;2023-04-10T01:54:08;102318.22;;;12.50;78.20
35806;BME280;21925;44.608;11.580;2023-04-10T01:56:34;102311.41;;;12.39;79.14
35806;BME280;21925;44.608;11.580;2023-04-10T01:59:00;102243.53;;;11.93;79.87
35806;BME280;21925;44.608;11.580;2023-04-10T02:01:28;102311.22;;;12.27;78.80
35806;BME280;21925;44.608;11.580;2023-04-10T02:03:53;102328.22;;;12.46;78.60
35806;BME280;21925;44.608;11.580;2023-04-10T02:11:46;102320.91;;;12.16;80.05
35806;BME280;21925;44.608;11.580;2023-04-10T02:14:16;102323.81;;;12.11;81.25
35806;BME280;21925;44.608;11.580;2023-04-10T02:16:43;102320.75;;;12.21;79.22
35806;BME280;21925;44.608;11.580;2023-04-10T02:19:11;102319.63;;;12.22;78.32
35806;BME280;21925;44.608;11.580;2023-04-10T02:21:37;102307.78;;;12.13;77.60
35806;BME280;21925;44.608;11.580;2023-04-10T02:24:06;102326.56;;;12.11;77.91
35806;BME280;21925;44.608;11.580;2023-04-10T02:26:52;102320.00;;;11.91;78.67
35806;BME280;21925;44.608;11.580;2023-04-10T02:29:17;102332.94;;;11.90;79.15
35806;BME280;21925;44.608;11.580;2023-04-10T02:31:44;102330.38;;;11.93;78.91
35806;BME280;21925;44.608;11.580;2023-04-10T02:34:10;102317.41;;;11.86;79.25
35806;BME280;21925;44.608;11.580;2023-04-10T02:36:37;102281.13;;;11.67;76.95
35806;BME280;21925;44.608;11.580;2023-04-10T02:39:04;102311.84;;;11.69;77.17
35806;BME280;21925;44.608;11.580;2023-04-10T02:41:31;102320.75;;;11.74;77.40
35806;BME280;21925;44.608;11.580;2023-04-10T02:43:59;102318.56;;;11.32;82.86
35806;BME280;21925;44.608;11.580;2023-04-10T02:46:27;102308.16;;;10.99;86.70
35806;BME280;21925;44.608;11.580;2023-04-10T02:48:54;102322.94;;;10.90;87.73
35806;BME280;21925;44.608;11.580;2023-04-10T02:51:19;102337.19;;;10.56;90.34
35806;BME280;21925;44.608;11.580;2023-04-10T02:53:47;102337.88;;;10.62;91.56
35806;BME280;21925;44.608;11.580;2023-04-10T02:56:22;102322.81;;;10.24;93.31
35806;BME280;21925;44.608;11.580;2023-04-10T02:58:50;102328.47;;;10.28;94.24
35806;BME280;21925;44.608;11.580;2023-04-10T03:01:15;102327.03;;;10.43;93.43
35806;BME280;21925;44.608;11.580;2023-04-10T03:03:43;102326.94;;;10.48;92.26
35806;BME280;21925;44.608;11.580;2023-04-10T03:06:09;102316.78;;;10.71;91.21
35806;BME280;21925;44.608;11.580;2023-04-10T03:08:36;102316.47;;;10.86;88.93
35806;BME280;21925;44.608;11.580;2023-04-10T03:11:02;102330.13;;;11.21;86.42
35806;BME280;21925;44.608;11.580;2023-04-10T03:13:27;102299.16;;;11.07;86.64
35806;BME280;21925;44.608;11.580;2023-04-10T03:15:53;102319.72;;;11.10;88.00
35806;BME280;21925;44.608;11.580;2023-04-10T03:18:19;102314.38;;;10.69;90.88
35806;BME280;21925;44.608;11.580;2023-04-10T03:20:48;102326.22;;;10.56;93.53
35806;BME280;21925;44.608;11.580;2023-04-10T03:23:14;102310.56;;;10.43;95.60
35806;BME280;21925;44.608;11.580;2023-04-10T03:25:40;102339.25;;;10.73;94.38
35806;BME280;21925;44.608;11.580;2023-04-10T03:28:07;102336.47;;;10.51;95.31
35806;BME280;21925;44.608;11.580;2023-04-10T03:30:33;102330.97;;;10.64;96.31
35806;BME280;21925;44.608;11.580;2023-04-10T03:33:01;102349.34;;;10.50;96.38
35806;BME280;21925;44.608;11.580;2023-04-10T03:35:27;102344.91;;;10.54;95.79
35806;BME280;21925;44.608;11.580;2023-04-10T03:37:52;102338.09;;;10.87;93.72
35806;BME280;21925;44.608;11.580;2023-04-10T03:40:19;102324.78;;;11.03;91.09
35806;BME280;21925;44.608;11.580;2023-04-10T03:42:44;102338.19;;;11.17;90.52
35806;BME280;21925;44.608;11.580;2023-04-10T03:45:11;102318.59;;;10.75;90.71
35806;BME280;21925;44.608;11.580;2023-04-10T03:47:37;102323.25;;;10.88;90.23
35806;BME280;21925;44.608;11.580;2023-04-10T03:50:05;102358.81;;;10.93;90.30
35806;BME280;21925;44.608;11.580;2023-04-10T03:52:39;102349.22;;;11.04;90.95
35806;BME280;21925;44.608;11.580;2023-04-10T03:55:08;102335.34;;;11.09;90.61
35806;BME280;21925;44.608;11.580;2023-04-10T03:57:34;102277.97;;;10.77;89.95
35806;BME280;21925;44.608;11.580;2023-04-10T04:00:03;102359.06;;;11.27;88.96
35806;BME280;21925;44.608;11.580;2023-04-10T04:02:45;102356.47;;;11.22;88.44
35806;BME280;21925;44.608;11.580;2023-04-10T04:05:14;102367.72;;;11.20;88.91
35806;BME280;21925;44.608;11.580;2023-04-10T04:07:43;102335.72;;;10.94;90.52
35806;BME280;21925;44.608;11.580;2023-04-10T04:10:29;102361.63;;;11.02;92.02
35806;BME280;21925;44.608;11.580;2023-04-10T04:13:12;102362.25;;;11.20;90.05
35806;BME280;21925;44.608;11.580;2023-04-10T04:16:04;102372.28;;;11.47;88.92
35806;BME280;21925;44.608;11.580;2023-04-10T04:18:51;102374.84;;;11.65;86.59
35806;BME280;21925;44.608;11.580;2023-04-10T04:21:24;102380.81;;;11.67;85.99
35806;BME280;21925;44.608;11.580;2023-04-10T04:24:15;102381.00;;;11.49;85.70
35806;BME280;21925;44.608;11.580;2023-04-10T04:27:13;102379.38;;;11.48;84.33
35806;BME280;21925;44.608;11.580;2023-04-10T04:29:47;102371.22;;;11.12;85.81
35806;BME280;21925;44.608;11.580;2023-04-10T04:32:25;102373.97;;;11.12;87.42
35806;BME280;21925;44.608;11.580;2023-04-10T04:34:59;102381.81;;;11.27;87.27
35806;BME280;21925;44.608;11.580;2023-04-10T04:37:43;102378.00;;;10.93;88.72
35806;BME280;21925;44.608;11.580;2023-04-10T04:40:21;102365.78;;;10.99;90.36
35806;BME280;21925;44.608;11.580;2023-04-10T04:43:05;102378.28;;;11.05;89.29
35806;BME280;21925;44.608;11.580;2023-04-10T04:45:53;102389.53;;;10.82;90.05
35806;BME280;21925;44.608;11.580;2023-04-10T04:48:57;102364.63;;;10.30;92.74
35806;BME280;21925;44.608;11.580;2023-04-10T04:51:45;102390.59;;;9.92;95.92
35806;BME280;21925;44.608;11.580;2023-04-10T04:54:34;102399.91;;;9.77;97.13
35806;BME280;21925;44.608;11.580;2023-04-10T04:57:25;102396.84;;;9.79;98.21
35806;BME280;21925;44.608;11.580;2023-04-10T04:59:55;102403.38;;;9.83;97.60
35806;BME280;21925;44.608;11.580;2023-04-10T05:02:41;102397.06;;;9.69;97.98
35806;BME280;21925;44.608;11.580;2023-04-10T05:05:27;102402.94;;;9.76;97.48
35806;BME280;21925;44.608;11.580;2023-04-10T05:08:11;102403.81;;;9.26;99.82
35806;BME280;21925;44.608;11.580;2023-04-10T05:10:59;102407.50;;;9.35;98.98
35806;BME280;21925;44.608;11.580;2023-04-10T05:13:53;102408.31;;;9.36;99.34
35806;BME280;21925;44.608;11.580;2023-04-10T05:16:29;102416.19;;;9.24;100.00
35806;BME280;21925;44.608;11.580;2023-04-10T05:19:12;102411.19;;;9.44;100.00
35806;BME280;21925;44.608;11.580;2023-04-10T05:22:15;102422.63;;;9.46;99.40
35806;BME280;21925;44.608;11.580;2023-04-10T05:25:01;102420.66;;;9.65;98.79
35806;BME280;21925;44.608;11.580;2023-04-10T05:27:35;102438.63;;;10.03;96.92
35806;BME280;21925;44.608;11.580;2023-04-10T05:30:19;102431.97;;;9.90;95.39
35806;BME280;21925;44.608;11.580;2023-04-10T05:33:05;102432.47;;;9.79;96.73
35806;BME280;21925;44.608;11.580;2023-04-10T05:35:49;102432.97;;;9.81;97.28
35806;BME280;21925;44.608;11.580;2023-04-10T05:38:32;102431.97;;;9.90;97.83
35806;BME280;21925;44.608;11.580;2023-04-10T05:41:30;102446.19;;;9.92;98.21
35806;BME280;21925;44.608;11.580;2023-04-10T05:44:15;102427.91;;;9.88;98.98
35806;BME280;21925;44.608;11.580;2023-04-10T05:47:13;102438.81;;;9.93;98.92
35806;BME280;21925;44.608;11.580;2023-04-10T05:49:39;102439.69;;;10.20;97.32
35806;BME280;21925;44.608;11.580;2023-04-10T05:52:25;102449.00;;;10.06;97.56
35806;BME280;21925;44.608;11.580;2023-04-10T05:55:02;102438.34;;;10.31;97.43
35806;BME280;21925;44.608;11.580;2023-04-10T05:57:48;102446.47;;;10.23;98.04
35806;BME280;21925;44.608;11.580;2023-04-10T06:00:26;102457.84;;;10.30;98.45
35806;BME280;21925;44.608;11.580;2023-04-10T06:03:14;102459.28;;;10.54;98.34
35806;BME280;21925;44.608;11.580;2023-04-10T06:05:49;102467.59;;;10.62;97.38
35806;BME280;21925;44.608;11.580;2023-04-10T06:08:14;102453.16;;;10.43;98.26
35806;BME280;21925;44.608;11.580;2023-04-10T06:10:40;102470.94;;;10.59;98.96
35806;BME280;21925;44.608;11.580;2023-04-10T06:13:09;102459.88;;;10.51;98.80
35806;BME280;21925;44.608;11.580;2023-04-10T06:15:35;102472.06;;;10.58;100.00
35806;BME280;21925;44.608;11.580;2023-04-10T06:18:01;102471.56;;;10.56;100.00
35806;BME280;21925;44.608;11.580;2023-04-10T06:20:26;102470.22;;;10.67;100.00
35806;BME280;21925;44.608;11.580;2023-04-10T06:22:52;102463.53;;;10.73;100.00
35806;BME280;21925;44.608;11.580;2023-04-10T06:25:18;102477.38;;;11.04;100.00
35806;BME280;21925;44.608;11.580;2023-04-10T06:27:44;102488.13;;;11.27;100.00
35806;BME280;21925;44.608;11.580;2023-04-10T06:30:09;102480.09;;;11.17;100.00
35806;BME280;21925;44.608;11.580;2023-04-10T06:32:35;102474.75;;;11.12;100.00
35806;BME280;21925;44.608;11.580;2023-04-10T06:35:01;102482.88;;;11.52;100.00
35806;BME280;21925;44.608;11.580;2023-04-10T06:37:28;102480.81;;;11.58;100.00
35806;BME280;21925;44.608;11.580;2023-04-10T06:40:07;102486.81;;;11.60;100.00
35806;BME280;21925;44.608;11.580;2023-04-10T06:42:34;102477.63;;;11.64;100.00
35806;BME280;21925;44.608;11.580;2023-04-10T06:45:06;102484.19;;;11.55;99.30
35806;BME280;21925;44.608;11.580;2023-04-10T06:47:32;102454.97;;;12.11;99.82
35806;BME280;21925;44.608;11.580;2023-04-10T06:49:58;102474.28;;;12.28;95.17
35806;BME280;21925;44.608;11.580;2023-04-10T06:52:24;102464.09;;;12.28;92.85
35806;BME280;21925;44.608;11.580;2023-04-10T06:54:49;102468.28;;;12.26;94.25
35806;BME280;21925;44.608;11.580;2023-04-10T06:57:15;102462.25;;;12.54;94.80
35806;BME280;21925;44.608;11.580;2023-04-10T06:59:41;102464.88;;;12.59;92.10
35806;BME280;21925;44.608;11.580;2023-04-10T07:02:07;102470.50;;;12.54;90.60
35806;BME280;21925;44.608;11.580;2023-04-10T07:04:32;102484.78;;;12.65;90.18
35806;BME280;21925;44.608;11.580;2023-04-10T07:06:58;102479.34;;;12.34;92.20
35806;BME280;21925;44.608;11.580;2023-04-10T07:09:28;102484.56;;;12.44;92.16
35806;BME280;21925;44.608;11.580;2023-04-10T07:11:54;102469.38;;;12.55;94.38
35806;BME280;21925;44.608;11.580;2023-04-10T07:14:19;102479.31;;;12.73;94.15
35806;BME280;21925;44.608;11.580;2023-04-10T07:16:45;102477.47;;;13.07;93.77
35806;BME280;21925;44.608;11.580;2023-04-10T07:19:11;102476.53;;;13.37;90.24
35806;BME280;21925;44.608;11.580;2023-04-10T07:21:36;102463.69;;;13.66;89.50
35806;BME280;21925;44.608;11.580;2023-04-10T07:24:02;102474.41;;;13.59;89.33
35806;BME280;21925;44.608;11.580;2023-04-10T07:26:27;102476.94;;;13.98;85.92
35806;BME280;21925;44.608;11.580;2023-04-10T07:28:53;102433.88;;;13.68;84.81
35806;BME280;21925;44.608;11.580;2023-04-10T07:31:18;102463.84;;;13.70;83.42
35806;BME280;21925;44.608;11.580;2023-04-10T07:33:45;102480.50;;;14.07;83.27
35806;BME280;21925;44.608;11.580;2023-04-10T07:36:11;102486.00;;;14.24;83.49
35806;BME280;21925;44.608;11.580;2023-04-10T07:38:37;102445.47;;;13.99;80.05
35806;BME280;21925;44.608;11.580;2023-04-10T07:41:03;102472.41;;;14.85;76.60
35806;BME280;21925;44.608;11.580;2023-04-10T07:43:29;102472.34;;;14.36;80.27
35806;BME280;21925;44.608;11.580;2023-04-10T07:45:55;102463.34;;;15.05;77.43
35806;BME280;21925;44.608;11.580;2023-04-10T07:48:21;102484.31;;;14.77;76.85
35806;BME280;21925;44.608;11.580;2023-04-10T07:50:46;102460.94;;;14.37;80.61
35806;BME280;21925;44.608;11.580;2023-04-10T07:53:12;102469.53;;;15.02;79.10
35806;BME280;21925;44.608;11.580;2023-04-10T07:55:39;102481.16;;;15.36;76.08
35806;BME280;21925;44.608;11.580;2023-04-10T07:58:05;102478.00;;;16.11;70.81
35806;BME280;21925;44.608;11.580;2023-04-10T08:00:31;102474.31;;;16.07;68.94
35806;BME280;21925;44.608;11.580;2023-04-10T08:02:57;102465.06;;;16.83;63.39
35806;BME280;21925;44.608;11.580;2023-04-10T08:05:22;102467.00;;;16.94;56.00
35806;BME280;21925;44.608;11.580;2023-04-10T08:07:48;102444.84;;;16.94;55.13
35806;BME280;21925;44.608;11.580;2023-04-10T08:10:13;102460.03;;;17.12;54.43
35806;BME280;21925;44.608;11.580;2023-04-10T08:12:39;102462.00;;;17.63;54.00
35806;BME280;21925;44.608;11.580;2023-04-10T08:15:05;102480.50;;;17.86;53.71
35806;BME280;21925;44.608;11.580;2023-04-10T08:17:31;102456.88;;;17.92;53.41
35806;BME280;21925;44.608;11.580;2023-04-10T08:19:57;102479.56;;;17.67;52.76
35806;BME280;21925;44.608;11.580;2023-04-10T08:22:22;102477.63;;;17.83;53.34
35806;BME280;21925;44.608;11.580;2023-04-10T08:24:48;102474.38;;;18.08;52.54
35806;BME280;21925;44.608;11.580;2023-04-10T08:27:13;102478.94;;;18.16;52.37
35806;BME280;21925;44.608;11.580;2023-04-10T08:29:41;102463.66;;;18.22;50.79
35806;BME280;21925;44.608;11.580;2023-04-10T08:32:07;102470.91;;;18.27;48.57
35806;BME280;21925;44.608;11.580;2023-04-10T08:34:32;102476.88;;;18.41;47.63
35806;BME280;21925;44.608;11.580;2023-04-10T08:36:58;102479.44;;;18.34;47.90
35806;BME280;21925;44.608;11.580;2023-04-10T08:39:23;102466.19;;;18.58;48.41
35806;BME280;21925;44.608;11.580;2023-04-10T08:41:49;102453.16;;;18.93;49.08
35806;BME280;21925;44.608;11.580;2023-04-10T08:44:15;102474.25;;;18.47;46.39
35806;BME280;21925;44.608;11.580;2023-04-10T08:46:43;102471.72;;;18.42;46.91
35806;BME280;21925;44.608;11.580;2023-04-10T08:49:16;102481.44;;;18.98;48.00
35806;BME280;21925;44.608;11.580;2023-04-10T08:51:57;102461.41;;;18.89;47.55
35806;BME280;21925;44.608;11.580;2023-04-10T08:54:32;102477.22;;;19.20;47.35
35806;BME280;21925;44.608;11.580;2023-04-10T08:56:58;102485.16;;;19.55;48.16
35806;BME280;21925;44.608;11.580;2023-04-10T08:59:29;102494.13;;;19.11;46.25
35806;BME280;21925;44.608;11.580;2023-04-10T09:01:56;102452.84;;;19.89;46.44
35806;BME280;21925;44.608;11.580;2023-04-10T09:04:25;102426.59;;;19.48;45.73
35806;BME280;21925;44.608;11.580;2023-04-10T09:06:52;102465.19;;;19.91;46.04
35806;BME280;21925;44.608;11.580;2023-04-10T09:09:17;102480.84;;;19.77;45.33
35806;BME280;21925;44.608;11.580;2023-04-10T09:14:22;102454.19;;;19.57;43.96
35806;BME280;21925;44.608;11.580;2023-04-10T09:16:49;102470.44;;;19.55;44.28
35806;BME280;21925;44.608;11.580;2023-04-10T09:19:31;102483.19;;;19.75;44.17
35806;BME280;21925;44.608;11.580;2023-04-10T09:21:57;102486.13;;;20.01;43.33
35806;BME280;21925;44.608;11.580;2023-04-10T09:24:24;102456.38;;;19.86;44.00
35806;BME280;21925;44.608;11.580;2023-04-10T09:26:50;102475.38;;;20.21;44.20
35806;BME280;21925;44.608;11.580;2023-04-10T09:29:15;102459.28;;;20.79;44.62
35806;BME280;21925;44.608;11.580;2023-04-10T09:31:42;102485.72;;;20.43;44.35
35806;BME280;21925;44.608;11.580;2023-04-10T09:36:40;102478.56;;;20.90;44.29
35806;BME280;21925;44.608;11.580;2023-04-10T09:39:07;102475.19;;;21.04;44.10
35806;BME280;21925;44.608;11.580;2023-04-10T09:41:33;102465.69;;;21.08;44.41
35806;BME280;21925;44.608;11.580;2023-04-10T09:44:09;102472.47;;;20.59;44.47
35806;BME280;21925;44.608;11.580;2023-04-10T09:46:36;102475.00;;;20.90;43.87
35806;BME280;21925;44.608;11.580;2023-04-10T09:49:02;102432.50;;;21.00;44.35
35806;BME280;21925;44.608;11.580;2023-04-10T09:51:33;102438.47;;;21.28;43.96
35806;BME280;21925;44.608;11.580;2023-04-10T09:54:00;102461.72;;;21.65;43.54
35806;BME280;21925;44.608;11.580;2023-04-10T09:56:27;102476.91;;;21.41;43.60
35806;BME280;21925;44.608;11.580;2023-04-10T09:58:56;102476.50;;;21.68;44.59
35806;BME280;21925;44.608;11.580;2023-04-10T10:01:27;102472.28;;;21.23;43.41
35806;BME280;21925;44.608;11.580;2023-04-10T10:04:02;102476.59;;;22.12;42.82
35806;BME280;21925;44.608;11.580;2023-04-10T10:06:32;102469.84;;;21.80;43.45
35806;BME280;21925;44.608;11.580;2023-04-10T10:09:02;102456.88;;;21.62;42.74
35806;BME280;21925;44.608;11.580;2023-04-10T10:11:31;102440.16;;;22.01;43.02
35806;BME280;21925;44.608;11.580;2023-04-10T10:13:59;102476.88;;;22.83;43.80
35806;BME280;21925;44.608;11.580;2023-04-10T10:16:44;102469.03;;;22.12;42.29
35806;BME280;21925;44.608;11.580;2023-04-10T10:19:35;102470.44;;;23.33;43.49
35806;BME280;21925;44.608;11.580;2023-04-10T10:22:03;102463.78;;;22.94;41.87
35806;BME280;21925;44.608;11.580;2023-04-10T10:24:30;102446.63;;;22.45;42.27
35806;BME280;21925;44.608;11.580;2023-04-10T10:26:58;102441.94;;;23.17;42.16
35806;BME280;21925;44.608;11.580;2023-04-10T10:29:26;102447.81;;;23.01;41.29
35806;BME280;21925;44.608;11.580;2023-04-10T10:31:59;102456.28;;;23.08;40.81
35806;BME280;21925;44.608;11.580;2023-04-10T10:34:27;102455.00;;;23.73;41.43
35806;BME280;21925;44.608;11.580;2023-04-10T10:36:53;102433.13;;;24.66;42.89
35806;BME280;21925;44.608;11.580;2023-04-10T10:39:44;102445.53;;;24.93;40.08
35806;BME280;21925;44.608;11.580;2023-04-10T10:42:40;102452.19;;;22.95;40.00
35806;BME280;21925;44.608;11.580;2023-04-10T10:45:20;102439.13;;;23.10;40.71
35806;BME280;21925;44.608;11.580;2023-04-10T10:47:50;102443.69;;;23.49;41.21
35806;BME280;21925;44.608;11.580;2023-04-10T10:50:16;102426.97;;;22.92;41.08
35806;BME280;21925;44.608;11.580;2023-04-10T10:52:50;102433.13;;;24.73;42.41
35806;BME280;21925;44.608;11.580;2023-04-10T10:57:48;102425.91;;;24.23;39.21
35806;BME280;21925;44.608;11.580;2023-04-10T11:00:15;102407.00;;;25.14;39.66
35806;BME280;21925;44.608;11.580;2023-04-10T11:02:41;102426.28;;;23.97;40.44
35806;BME280;21925;44.608;11.580;2023-04-10T11:05:06;102416.28;;;24.20;41.43
35806;BME280;21925;44.608;11.580;2023-04-10T11:21:25;102410.56;;;25.28;38.62
35806;BME280;21925;44.608;11.580;2023-04-10T11:31:46;102395.91;;;23.07;40.32
35806;BME280;21925;44.608;11.580;2023-04-10T11:34:12;102393.44;;;23.84;39.97
35806;BME280;21925;44.608;11.580;2023-04-10T11:36:41;102388.59;;;24.89;40.71
35806;BME280;21925;44.608;11.580;2023-04-10T11:39:10;102385.03;;;24.64;40.00
35806;BME280;21925;44.608;11.580;2023-04-10T11:41:42;102389.03;;;24.42;40.00
35806;BME280;21925;44.608;11.580;2023-04-10T11:44:10;102388.25;;;24.66;40.80
35806;BME280;21925;44.608;11.580;2023-04-10T11:46:37;102380.25;;;24.68;39.31
35806;BME280;21925;44.608;11.580;2023-04-10T11:49:05;102371.44;;;24.55;39.22
35806;BME280;21925;44.608;11.580;2023-04-10T11:51:32;102375.81;;;24.67;38.48
35806;BME280;21925;44.608;11.580;2023-04-10T11:54:12;102381.06;;;24.30;38.77
35806;BME280;21925;44.608;11.580;2023-04-10T11:56:39;102369.81;;;24.06;39.08
35806;BME280;21925;44.608;11.580;2023-04-10T11:59:06;102373.03;;;24.25;39.67
35806;BME280;21925;44.608;11.580;2023-04-10T12:01:35;102353.75;;;23.71;38.39
35806;BME280;21925;44.608;11.580;2023-04-10T12:04:01;102364.94;;;23.68;38.21
35806;BME280;21925;44.608;11.580;2023-04-10T12:06:27;102342.13;;;23.69;38.43
35806;BME280;21925;44.608;11.580;2023-04-10T12:08:53;102365.66;;;25.21;40.29
35806;BME280;21925;44.608;11.580;2023-04-10T12:11:21;102353.81;;;24.58;38.96
35806;BME280;21925;44.608;11.580;2023-04-10T12:13:50;102361.00;;;24.04;37.51
35806;BME280;21925;44.608;11.580;2023-04-10T12:16:16;102358.63;;;24.30;38.92
35806;BME280;21925;44.608;11.580;2023-04-10T12:18:42;102340.56;;;24.69;39.08
35806;BME280;21925;44.608;11.580;2023-04-10T12:21:09;102353.50;;;25.52;39.73
35806;BME280;21925;44.608;11.580;2023-04-10T12:23:36;102356.88;;;25.02;36.86
35806;BME280;21925;44.608;11.580;2023-04-10T12:28:34;102355.59;;;25.31;38.43
35806;BME280;21925;44.608;11.580;2023-04-10T12:31:01;102333.00;;;24.21;36.87
35806;BME280;21925;44.608;11.580;2023-04-10T12:33:27;102352.59;;;24.28;38.97
35806;BME280;21925;44.608;11.580;2023-04-10T12:35:53;102336.97;;;24.37;37.53
35806;BME280;21925;44.608;11.580;2023-04-10T12:38:39;102342.56;;;24.69;38.23
35806;BME280;21925;44.608;11.580;2023-04-10T12:41:06;102342.19;;;24.25;36.98
35806;BME280;21925;44.608;11.580;2023-04-10T12:43:37;102326.50;;;23.47;37.44
35806;BME280;21925;44.608;11.580;2023-04-10T12:46:04;102327.78;;;24.51;37.08
35806;BME280;21925;44.608;11.580;2023-04-10T12:48:30;102296.75;;;24.99;39.61
35806;BME280;21925;44.608;11.580;2023-04-10T12:50:56;102304.75;;;25.01;37.96
35806;BME280;21925;44.608;11.580;2023-04-10T12:53:21;102315.56;;;25.06;39.84
35806;BME280;21925;44.608;11.580;2023-04-10T12:56:04;102308.81;;;25.75;37.78
35806;BME280;21925;44.608;11.580;2023-04-10T12:58:32;102296.97;;;23.95;36.97
35806;BME280;21925;44.608;11.580;2023-04-10T13:01:01;102315.66;;;23.42;37.14
35806;BME280;21925;44.608;11.580;2023-04-10T13:03:29;102313.00;;;23.98;38.05
35806;BME280;21925;44.608;11.580;2023-04-10T13:05:55;102313.78;;;23.88;38.51
35806;BME280;21925;44.608;11.580;2023-04-10T13:08:21;102319.31;;;23.64;38.03
35806;BME280;21925;44.608;11.580;2023-04-10T13:10:47;102276.03;;;23.27;38.47
35806;BME280;21925;44.608;11.580;2023-04-10T13:13:14;102306.38;;;23.11;38.55
35806;BME280;21925;44.608;11.580;2023-04-10T13:15:40;102306.50;;;23.59;37.32
35806;BME280;21925;44.608;11.580;2023-04-10T13:18:06;102299.34;;;23.93;38.98
35806;BME280;21925;44.608;11.580;2023-04-10T13:20:36;102303.56;;;23.07;36.30
35806;BME280;21925;44.608;11.580;2023-04-10T13:23:02;102295.28;;;23.52;38.07
35806;BME280;21925;44.608;11.580;2023-04-10T13:25:32;102300.53;;;24.55;38.08
35806;BME280;21925;44.608;11.580;2023-04-10T13:28:00;102258.19;;;22.60;37.31
35806;BME280;21925;44.608;11.580;2023-04-10T13:30:26;102304.06;;;23.33;38.81
35806;BME280;21925;44.608;11.580;2023-04-10T13:32:52;102302.59;;;22.75;37.00
35806;BME280;21925;44.608;11.580;2023-04-10T13:35:18;102287.91;;;23.03;37.40
35806;BME280;21925;44.608;11.580;2023-04-10T13:37:43;102309.09;;;22.97;39.76
35806;BME280;21925;44.608;11.580;2023-04-10T13:40:10;102239.44;;;22.71;38.13